createdAt,value
2019-01-22T00:01:47.848Z,38.37
2019-01-22T00:04:44.330Z,46.63
2019-01-22T00:07:39.806Z,45.90
2019-01-22T00:10:37.191Z,49.27
2019-01-22T00:13:32.592Z,44.90
2019-01-22T00:16:28.722Z,41.53
2019-01-22T00:19:26.883Z,45.07
2019-01-22T00:22:23.662Z,49.00
2019-01-22T00:25:19.562Z,42.53
2019-01-22T00:28:16.304Z,41.60
2019-01-22T00:31:11.819Z,46.20
2019-01-22T00:34:08.364Z,45.10
2019-01-22T00:37:03.846Z,47.07
2019-01-22T00:40:00.300Z,48.53
2019-01-22T00:42:55.903Z,46.30
2019-01-22T00:45:52.144Z,44.35
2019-01-22T00:48:49.901Z,44.50
2019-01-22T00:51:45.395Z,42.00
2019-01-22T00:54:41.923Z,45.77
2019-01-22T00:57:37.338Z,47.83
2019-01-22T01:00:43.485Z,46.77
2019-01-22T01:03:41.332Z,46.98
2019-01-22T01:06:36.791Z,48.33
2019-01-22T01:09:33.262Z,48.80
2019-01-22T01:12:28.773Z,50.00
2019-01-22T01:15:24.232Z,46.10
2019-01-22T01:18:19.904Z,52.37
2019-01-22T01:21:16.639Z,56.93
2019-01-22T01:24:12.107Z,47.10
2019-01-22T01:27:08.790Z,43.83
2019-01-22T01:30:06.342Z,50.17
2019-01-22T01:33:01.855Z,48.50
2019-01-22T01:35:57.482Z,54.33
2019-01-22T01:38:52.968Z,46.67
2019-01-22T01:41:50.690Z,38.80
2019-01-22T01:44:46.384Z,47.73
2019-01-22T01:47:43.231Z,41.87
2019-01-22T01:50:39.663Z,45.17
2019-01-22T01:53:36.454Z,44.40
2019-01-22T01:56:37.040Z,45.70
2019-01-22T01:59:37.596Z,48.20
2019-01-22T02:02:35.522Z,42.80
2019-01-22T02:05:31.009Z,46.97
2019-01-22T02:08:27.648Z,44.10
2019-01-22T02:11:24.344Z,49.97
2019-01-22T02:14:21.012Z,48.73
2019-01-22T02:17:41.792Z,51.90
2019-01-22T02:21:07.111Z,45.60
2019-01-22T02:24:51.246Z,47.30
2019-01-22T02:28:10.830Z,49.50
2019-01-22T02:31:35.753Z,53.20
2019-01-22T02:35:07.235Z,52.23
2019-01-22T02:38:25.800Z,47.47
2019-01-22T02:41:47.140Z,47.87
2019-01-22T02:45:10.973Z,51.50
2019-01-22T02:48:26.874Z,46.70
2019-01-22T02:51:47.492Z,46.80
2019-01-22T02:54:58.729Z,45.07
2019-01-22T02:58:29.204Z,51.67
2019-01-22T03:01:49.952Z,50.30
2019-01-22T03:04:55.055Z,48.27
2019-01-22T03:08:16.684Z,47.43
2019-01-22T03:11:56.519Z,54.27
2019-01-22T03:15:14.915Z,50.03
2019-01-22T03:18:32.755Z,49.63
2019-01-22T03:21:57.044Z,48.63
2019-01-22T03:25:25.000Z,53.92
2019-01-22T03:28:46.402Z,52.53
2019-01-22T03:32:17.413Z,51.47
2019-01-22T03:35:50.801Z,47.43
2019-01-22T03:39:31.809Z,55.37
2019-01-22T03:42:46.329Z,47.50
2019-01-22T03:46:03.244Z,50.30
2019-01-22T03:49:31.952Z,52.07
2019-01-22T03:52:45.830Z,57.50
2019-01-22T03:56:03.245Z,49.33
2019-01-22T03:58:58.718Z,50.27
2019-01-22T04:01:56.143Z,52.63
2019-01-22T04:04:52.500Z,50.60
2019-01-22T04:07:57.131Z,53.90
2019-01-22T04:11:06.000Z,49.67
2019-01-22T04:14:02.537Z,56.60
2019-01-22T04:16:59.011Z,50.20
2019-01-22T04:19:54.676Z,52.27
2019-01-22T04:23:11.617Z,56.60
2019-01-22T04:26:29.834Z,51.18
2019-01-22T04:29:55.679Z,48.80
2019-01-22T04:33:06.664Z,51.00
2019-01-22T04:36:20.943Z,52.23
2019-01-22T04:40:01.357Z,49.87
2019-01-22T04:43:18.679Z,53.43
2019-01-22T04:46:46.139Z,52.17
2019-01-22T04:50:21.648Z,50.40
2019-01-22T04:53:35.627Z,56.77
2019-01-22T04:57:01.845Z,50.15
2019-01-22T05:00:29.983Z,48.80
2019-01-22T05:03:57.613Z,47.00
2019-01-22T05:07:29.264Z,48.30
2019-01-22T05:11:05.321Z,47.60
2019-01-22T05:14:20.250Z,54.20
2019-01-22T05:17:39.776Z,51.77
2019-01-22T05:20:54.663Z,50.37
2019-01-22T05:24:08.536Z,50.20
2019-01-22T05:27:45.498Z,48.63
2019-01-22T05:31:17.352Z,47.57
2019-01-22T05:34:55.105Z,42.77
2019-01-22T05:38:31.077Z,46.60
2019-01-22T05:42:10.694Z,52.20
2019-01-22T05:45:26.730Z,46.63
2019-01-22T05:48:40.017Z,50.13
2019-01-22T05:52:00.516Z,45.47
2019-01-22T05:55:18.144Z,47.27
2019-01-22T05:58:52.563Z,48.33
2019-01-22T06:02:00.513Z,50.37
2019-01-22T06:05:18.256Z,52.27
2019-01-22T06:08:41.743Z,44.67
2019-01-22T06:11:56.838Z,46.40
2019-01-22T06:15:31.397Z,50.33
2019-01-22T06:18:51.306Z,54.53
2019-01-22T06:22:38.706Z,46.98
2019-01-22T06:26:10.716Z,50.40
2019-01-22T06:29:45.071Z,47.77
2019-01-22T06:33:21.099Z,49.37
2019-01-22T06:37:00.619Z,45.10
2019-01-22T06:40:23.725Z,52.80
2019-01-22T06:44:00.805Z,52.77
2019-01-22T06:47:16.243Z,56.27
2019-01-22T06:50:31.592Z,59.23
2019-01-22T06:53:59.494Z,50.97
2019-01-22T06:57:45.212Z,51.67
2019-01-22T07:01:16.921Z,61.40
2019-01-22T07:05:03.721Z,58.43
2019-01-22T07:08:31.303Z,55.60
2019-01-22T07:11:44.176Z,45.83
2019-01-22T07:14:59.761Z,47.80
2019-01-22T07:18:16.480Z,54.63
2019-01-22T07:21:48.137Z,53.40
2019-01-22T07:25:04.891Z,53.70
2019-01-22T07:28:28.540Z,55.40
2019-01-22T07:31:44.557Z,60.30
2019-01-22T07:35:23.181Z,59.00
2019-01-22T07:38:43.657Z,63.77
2019-01-22T07:42:13.469Z,62.70
2019-01-22T07:45:43.903Z,61.17
2019-01-22T07:48:47.879Z,57.00
2019-01-22T07:52:11.193Z,62.93
2019-01-22T07:55:53.606Z,65.47
2019-01-22T07:59:20.349Z,60.60
2019-01-22T08:02:45.065Z,60.38
2019-01-22T08:05:58.977Z,57.95
2019-01-22T08:09:12.855Z,59.27
2019-01-22T08:12:23.683Z,56.17
2019-01-22T08:15:38.651Z,55.60
2019-01-22T08:19:02.817Z,53.17
2019-01-22T08:22:28.700Z,54.27
2019-01-22T08:25:46.516Z,55.73
2019-01-22T08:29:08.748Z,51.33
2019-01-22T08:32:35.469Z,51.17
2019-01-22T08:36:06.206Z,57.40
2019-01-22T08:39:35.955Z,59.13
2019-01-22T08:42:45.511Z,50.77
2019-01-22T08:46:14.342Z,46.93
2019-01-22T08:49:31.581Z,43.37
2019-01-22T08:53:00.154Z,38.80
2019-01-22T08:56:13.743Z,45.53
2019-01-22T08:59:28.177Z,41.98
2019-01-22T09:02:52.831Z,39.53
2019-01-22T09:06:24.550Z,45.50
2019-01-22T09:09:51.683Z,40.87
2019-01-22T09:13:07.339Z,39.80
2019-01-22T09:16:13.445Z,36.33
2019-01-22T09:19:31.246Z,40.57
2019-01-22T09:23:00.301Z,43.60
2019-01-22T09:26:15.614Z,50.00
2019-01-22T09:29:38.643Z,41.10
2019-01-22T09:33:21.275Z,37.57
2019-01-22T09:37:02.197Z,47.17
2019-01-22T09:39:57.641Z,43.52
2019-01-22T09:43:06.597Z,40.80
2019-01-22T09:46:03.280Z,41.87
2019-01-22T09:49:00.154Z,44.27
2019-01-22T09:51:56.912Z,45.80
2019-01-22T09:54:52.635Z,43.13
2019-01-22T09:57:49.744Z,49.58
2019-01-22T10:00:46.460Z,44.43
2019-01-22T10:03:43.049Z,44.70
2019-01-22T10:06:38.569Z,48.23
2019-01-22T10:09:35.358Z,50.30
2019-01-22T10:12:30.529Z,50.83
2019-01-22T10:15:26.982Z,44.93
2019-01-22T10:18:23.362Z,43.40
2019-01-22T10:21:20.016Z,53.58
2019-01-22T10:24:15.335Z,49.73
2019-01-22T10:27:22.416Z,38.83
2019-01-22T10:30:18.950Z,47.20
2019-01-22T10:33:14.300Z,49.60
2019-01-22T10:36:10.794Z,47.90
2019-01-22T10:39:07.552Z,54.00
2019-01-22T10:42:08.135Z,54.18
2019-01-22T10:45:09.865Z,53.25
2019-01-22T10:48:12.374Z,54.05
2019-01-22T10:51:09.079Z,55.93
2019-01-22T10:54:04.610Z,59.57
2019-01-22T10:57:01.218Z,55.50
2019-01-22T10:59:57.780Z,59.33
2019-01-22T11:02:54.668Z,54.30
2019-01-22T11:05:55.953Z,51.57
2019-01-22T11:08:52.810Z,57.27
2019-01-22T11:11:55.482Z,51.93
2019-01-22T11:14:50.797Z,52.00
2019-01-22T11:17:48.604Z,50.53
2019-01-22T11:20:48.091Z,55.20
2019-01-22T11:23:44.720Z,48.67
2019-01-22T11:26:40.461Z,52.13
2019-01-22T11:29:37.192Z,54.80
2019-01-22T11:32:35.066Z,52.40
2019-01-22T11:35:30.702Z,54.73
2019-01-22T11:38:29.393Z,50.30
2019-01-22T11:41:25.926Z,55.20
2019-01-22T11:44:22.010Z,59.10
2019-01-22T11:47:19.637Z,58.20
2019-01-22T11:50:17.518Z,51.10
2019-01-22T11:53:13.170Z,54.33
2019-01-22T11:56:09.924Z,54.47
2019-01-22T11:59:06.421Z,58.07
2019-01-22T12:02:04.118Z,49.47
2019-01-22T12:05:00.758Z,49.77
2019-01-22T12:07:56.159Z,46.87
2019-01-22T12:10:53.294Z,53.40
2019-01-22T12:13:54.136Z,56.97
2019-01-22T12:16:52.283Z,51.40
2019-01-22T12:19:48.686Z,49.13
2019-01-22T12:22:45.519Z,49.40
2019-01-22T12:25:42.330Z,54.87
2019-01-22T12:28:38.039Z,51.30
2019-01-22T12:31:34.738Z,49.67
2019-01-22T12:34:30.286Z,49.57
2019-01-22T12:37:27.535Z,44.17
2019-01-22T12:40:25.789Z,46.58
2019-01-22T12:43:21.380Z,51.73
2019-01-22T12:46:19.979Z,53.00
2019-01-22T12:49:16.656Z,54.87
2019-01-22T12:52:18.051Z,49.90
2019-01-22T12:55:21.521Z,48.33
2019-01-22T12:58:18.121Z,49.03
2019-01-22T13:01:14.776Z,56.57
2019-01-22T13:04:10.339Z,53.67
2019-01-22T13:07:06.919Z,54.90
2019-01-22T13:10:02.662Z,47.90
2019-01-22T13:12:59.328Z,50.00
2019-01-22T13:15:55.869Z,50.20
2019-01-22T13:18:50.853Z,65.00
2019-01-22T13:21:47.399Z,48.47
2019-01-22T13:24:43.123Z,53.53
2019-01-22T13:27:39.662Z,53.23
2019-01-22T13:30:42.397Z,54.10
2019-01-22T13:33:40.341Z,49.83
2019-01-22T13:36:36.896Z,48.27
2019-01-22T13:39:31.928Z,47.00
2019-01-22T13:42:29.506Z,47.30
2019-01-22T13:45:26.409Z,43.50
2019-01-22T13:48:23.101Z,46.90
2019-01-22T13:51:20.914Z,49.23
2019-01-22T13:54:16.233Z,46.60
2019-01-22T13:57:12.851Z,51.33
2019-01-22T14:00:09.653Z,46.83
2019-01-22T14:03:06.447Z,46.30
2019-01-22T14:06:02.825Z,38.33
2019-01-22T14:08:58.299Z,37.98
2019-01-22T14:11:56.433Z,45.85
2019-01-22T14:14:51.408Z,44.87
2019-01-22T14:17:52.341Z,40.30
2019-01-22T14:20:50.052Z,44.73
2019-01-22T14:23:45.838Z,44.43
2019-01-22T14:26:42.580Z,41.77
2019-01-22T14:29:38.387Z,40.80
2019-01-22T14:32:36.008Z,43.98
2019-01-22T14:35:31.308Z,40.60
2019-01-22T14:38:27.593Z,39.20
2019-01-22T14:41:25.474Z,37.80
2019-01-22T14:44:23.206Z,43.47
2019-01-22T14:47:24.071Z,45.03
2019-01-22T14:50:19.763Z,40.40
2019-01-22T14:53:16.346Z,44.13
2019-01-22T14:56:12.984Z,41.47
2019-01-22T14:59:08.719Z,38.47
2019-01-22T15:02:06.457Z,35.73
2019-01-22T15:05:12.264Z,39.50
2019-01-22T15:08:15.276Z,38.90
2019-01-22T15:11:19.181Z,39.43
2019-01-22T15:14:14.929Z,35.77
2019-01-22T15:17:11.724Z,40.40
2019-01-22T15:20:07.311Z,43.87
2019-01-22T15:23:05.175Z,36.48
2019-01-22T15:25:59.890Z,34.38
2019-01-22T15:28:56.046Z,42.77
2019-01-22T15:31:51.540Z,43.87
2019-01-22T15:34:48.359Z,50.70
2019-01-22T15:37:43.871Z,48.40
2019-01-22T15:40:47.661Z,39.37
2019-01-22T15:43:39.784Z,46.93
2019-01-22T15:46:36.716Z,44.67
2019-01-22T15:49:33.111Z,49.50
2019-01-22T15:52:29.687Z,47.57
2019-01-22T15:55:28.107Z,50.20
2019-01-22T15:58:23.296Z,45.00
2019-01-22T16:01:19.794Z,43.07
2019-01-22T16:04:16.550Z,54.40
2019-01-22T16:07:12.183Z,45.03
2019-01-22T16:10:08.880Z,44.83
2019-01-22T16:13:04.414Z,56.60
2019-01-22T16:16:01.139Z,45.87
2019-01-22T16:18:57.558Z,52.57
2019-01-22T16:21:53.341Z,57.37
2019-01-22T16:24:50.187Z,39.53
2019-01-22T16:27:46.077Z,46.70
2019-01-22T16:30:43.575Z,49.37
2019-01-22T16:33:40.964Z,56.70
2019-01-22T16:36:37.543Z,52.70
2019-01-22T16:39:33.254Z,56.73
2019-01-22T16:42:31.515Z,53.63
2019-01-22T16:45:28.316Z,44.50
2019-01-22T16:48:25.525Z,60.30
2019-01-22T16:51:22.400Z,52.00
2019-01-22T16:54:17.918Z,52.83
2019-01-22T16:57:14.464Z,54.90
2019-01-22T17:00:10.205Z,50.60
2019-01-22T17:03:07.855Z,48.37
2019-01-22T17:06:15.509Z,54.48
2019-01-22T17:09:11.053Z,56.67
2019-01-22T17:12:07.393Z,59.57
2019-01-22T17:15:02.959Z,55.23
2019-01-22T17:18:04.811Z,55.83
2019-01-22T17:21:06.382Z,54.15
2019-01-22T17:24:03.959Z,57.50
2019-01-22T17:27:00.389Z,52.80
2019-01-22T17:29:55.364Z,60.17
2019-01-22T17:32:57.729Z,53.80
2019-01-22T17:35:57.537Z,53.77
2019-01-22T17:38:54.259Z,52.27
2019-01-22T17:41:51.095Z,57.20
2019-01-22T17:44:48.744Z,61.30
2019-01-22T17:47:45.430Z,56.53
2019-01-22T17:50:43.185Z,56.87
2019-01-22T17:53:41.781Z,52.33
2019-01-22T17:56:38.346Z,56.50
2019-01-22T17:59:33.918Z,49.30
2019-01-22T18:02:34.786Z,51.30
2019-01-22T18:05:24.681Z,47.27
2019-01-22T18:08:21.224Z,57.23
2019-01-22T18:11:16.810Z,53.73
2019-01-22T18:14:14.316Z,49.17
2019-01-22T18:17:10.110Z,54.53
2019-01-22T18:20:06.812Z,56.37
2019-01-22T18:23:03.469Z,44.63
2019-01-22T18:26:00.117Z,52.10
2019-01-22T18:28:56.087Z,47.17
2019-01-22T18:31:51.780Z,52.73
2019-01-22T18:34:49.458Z,49.27
2019-01-22T18:37:45.172Z,49.50
2019-01-22T18:40:42.199Z,51.87
2019-01-22T18:43:38.719Z,46.67
2019-01-22T18:46:35.537Z,51.90
2019-01-22T18:49:31.315Z,47.83
2019-01-22T18:52:27.181Z,44.90
2019-01-22T18:55:24.846Z,44.70
2019-01-22T18:58:20.555Z,45.90
2019-01-22T19:01:17.030Z,51.13
2019-01-22T19:04:13.784Z,53.10
2019-01-22T19:07:10.798Z,51.30
2019-01-22T19:10:06.058Z,50.60
2019-01-22T19:13:02.874Z,52.10
2019-01-22T19:16:00.306Z,49.80
2019-01-22T19:18:56.287Z,53.83
2019-01-22T19:21:52.915Z,56.80
2019-01-22T19:24:49.854Z,49.73
2019-01-22T19:27:46.741Z,52.60
2019-01-22T19:30:45.990Z,49.80
2019-01-22T19:33:42.707Z,59.27
2019-01-22T19:36:39.744Z,56.40
2019-01-22T19:39:35.206Z,54.50
2019-01-22T19:42:31.477Z,59.93
2019-01-22T19:45:31.598Z,55.63
2019-01-22T19:48:27.806Z,55.67
2019-01-22T19:51:23.281Z,56.17
2019-01-22T19:54:20.188Z,52.67
2019-01-22T19:57:16.770Z,58.27
2019-01-22T20:00:14.595Z,61.07
2019-01-22T20:03:11.220Z,56.50
2019-01-22T20:06:08.777Z,56.37
2019-01-22T20:09:06.447Z,52.03
2019-01-22T20:12:03.147Z,56.53
2019-01-22T20:14:58.792Z,66.42
2019-01-22T20:17:56.535Z,58.40
2019-01-22T20:20:52.205Z,62.80
2019-01-22T20:23:48.886Z,61.68
2019-01-22T20:26:45.370Z,60.53
2019-01-22T20:29:42.246Z,59.27
2019-01-22T20:32:38.945Z,62.53
2019-01-22T20:35:37.543Z,57.37
2019-01-22T20:38:35.545Z,57.07
2019-01-22T20:41:31.117Z,60.50
2019-01-22T20:44:28.048Z,59.30
2019-01-22T20:47:25.526Z,58.33
2019-01-22T20:50:21.388Z,54.33
2019-01-22T20:53:17.984Z,63.13
2019-01-22T20:56:14.964Z,59.30
2019-01-22T20:59:12.659Z,58.47
2019-01-22T21:02:08.026Z,57.93
2019-01-22T21:05:05.134Z,57.10
2019-01-22T21:08:00.719Z,55.40
2019-01-22T21:10:56.955Z,57.23
2019-01-22T21:13:53.687Z,59.57
2019-01-22T21:16:49.188Z,59.10
2019-01-22T21:19:45.604Z,64.62
2019-01-22T21:22:41.334Z,65.43
2019-01-22T21:25:38.196Z,60.83
2019-01-22T21:28:34.001Z,64.90
2019-01-22T21:31:30.109Z,64.90
2019-01-22T21:34:27.093Z,64.27
2019-01-22T21:37:23.847Z,66.57
2019-01-22T21:40:20.427Z,63.67
2019-01-22T21:43:20.071Z,68.90
2019-01-22T21:46:22.585Z,64.63
2019-01-22T21:49:20.545Z,66.00
2019-01-22T21:52:22.090Z,72.33
2019-01-22T21:55:25.066Z,65.30
2019-01-22T21:58:22.669Z,62.87
2019-01-22T22:01:19.428Z,68.30
2019-01-22T22:04:14.989Z,62.93
2019-01-22T22:07:13.152Z,66.07
2019-01-22T22:10:09.560Z,64.83
2019-01-22T22:13:06.114Z,61.27
2019-01-22T22:16:04.861Z,63.30
2019-01-22T22:19:06.259Z,65.50
2019-01-22T22:22:03.020Z,66.43
2019-01-22T22:24:59.631Z,60.25
2019-01-22T22:27:56.154Z,64.70
2019-01-22T22:30:54.094Z,58.67
2019-01-22T22:33:49.569Z,69.62
2019-01-22T22:36:46.065Z,68.90
2019-01-22T22:39:41.396Z,68.63
2019-01-22T22:42:38.839Z,70.10
2019-01-22T22:45:34.218Z,67.00
2019-01-22T22:48:31.672Z,54.27
2019-01-22T22:51:26.642Z,68.40
2019-01-22T22:54:23.222Z,59.57
2019-01-22T22:57:19.693Z,59.38
2019-01-22T23:00:17.262Z,64.17
2019-01-22T23:03:12.717Z,65.45
2019-01-22T23:06:08.618Z,61.57
2019-01-22T23:09:06.131Z,65.97
2019-01-22T23:12:00.957Z,57.83
2019-01-22T23:14:57.349Z,62.87
2019-01-22T23:17:54.093Z,60.47
2019-01-22T23:20:50.745Z,66.23
2019-01-22T23:23:46.851Z,64.95
2019-01-22T23:26:43.665Z,69.70
2019-01-22T23:29:40.211Z,63.47
2019-01-22T23:32:36.701Z,58.93
2019-01-22T23:35:32.170Z,60.40
2019-01-22T23:38:29.011Z,57.50
2019-01-22T23:41:25.424Z,58.10
2019-01-22T23:44:22.052Z,59.10
2019-01-22T23:47:18.525Z,62.25
2019-01-22T23:50:13.951Z,63.67
2019-01-22T23:53:17.877Z,62.73
2019-01-22T23:56:13.605Z,57.17
2019-01-22T23:59:11.192Z,52.70
